createdAt,value
2022-08-14T00:02:27.169Z,19.43
2022-08-14T00:04:56.360Z,19.50
2022-08-14T00:07:24.217Z,19.41
2022-08-14T00:10:02.024Z,19.48
2022-08-14T00:12:48.065Z,18.79
2022-08-14T00:15:43.300Z,19.36
2022-08-14T00:18:30.384Z,19.28
2022-08-14T00:21:05.020Z,19.24
2022-08-14T00:23:40.206Z,19.18
2022-08-14T00:26:08.418Z,19.07
2022-08-14T00:28:51.452Z,18.92
2022-08-14T00:31:19.800Z,18.53
2022-08-14T00:34:36.957Z,18.67
2022-08-14T00:36:51.439Z,18.64
2022-08-14T00:39:19.701Z,18.64
2022-08-14T00:41:48.345Z,18.65
2022-08-14T00:44:21.542Z,18.51
2022-08-14T00:47:03.625Z,18.50
2022-08-14T00:49:38.380Z,18.53
2022-08-14T00:52:14.170Z,18.52
2022-08-14T00:54:49.891Z,18.45
2022-08-14T00:57:20.016Z,18.38
2022-08-14T00:59:48.679Z,18.40
2022-08-14T01:02:25.004Z,18.41
2022-08-14T01:04:58.391Z,18.45
2022-08-14T01:07:38.909Z,18.31
2022-08-14T01:10:15.191Z,17.51
2022-08-14T01:12:44.516Z,17.68
2022-08-14T01:15:17.089Z,18.03
2022-08-14T01:18:03.659Z,17.37
2022-08-14T01:20:51.429Z,18.24
2022-08-14T01:23:21.718Z,18.89
2022-08-14T01:25:52.342Z,18.44
2022-08-14T01:28:46.162Z,18.48
2022-08-14T01:31:14.287Z,18.43
2022-08-14T01:33:59.691Z,18.78
2022-08-14T01:36:39.354Z,18.63
2022-08-14T01:39:12.937Z,18.57
2022-08-14T01:41:58.302Z,18.42
2022-08-14T01:44:33.476Z,18.23
2022-08-14T01:47:19.579Z,18.06
2022-08-14T01:50:01.139Z,18.23
2022-08-14T01:52:57.769Z,18.29
2022-08-14T01:55:30.742Z,18.31
2022-08-14T01:58:01.809Z,18.24
2022-08-14T02:00:55.045Z,17.58
2022-08-14T02:03:30.216Z,18.46
2022-08-14T02:06:32.098Z,18.46
2022-08-14T02:08:52.921Z,18.67
2022-08-14T02:11:24.686Z,18.70
2022-08-14T02:13:59.748Z,18.50
2022-08-14T02:16:39.566Z,18.18
2022-08-14T02:19:14.680Z,18.73
2022-08-14T02:21:50.306Z,18.75
2022-08-14T02:24:40.129Z,18.95
2022-08-14T02:28:25.302Z,18.84
2022-08-14T02:30:02.074Z,18.65
2022-08-14T02:32:36.170Z,18.55
2022-08-14T02:35:19.150Z,18.74
2022-08-14T02:37:50.185Z,18.46
2022-08-14T02:40:19.641Z,18.28
2022-08-14T02:42:54.677Z,18.32
2022-08-14T02:45:38.747Z,18.35
2022-08-14T02:49:01.528Z,18.04
2022-08-14T02:51:05.188Z,17.95
2022-08-14T02:53:33.618Z,17.55
2022-08-14T02:56:29.453Z,18.16
2022-08-14T02:58:55.666Z,18.28
2022-08-14T03:01:26.179Z,18.04
2022-08-14T03:03:59.541Z,18.61
2022-08-14T03:06:57.185Z,19.00
2022-08-14T03:09:15.568Z,19.26
2022-08-14T03:11:45.057Z,18.96
2022-08-14T03:14:15.461Z,19.02
2022-08-14T03:16:49.315Z,18.81
2022-08-14T03:19:19.763Z,18.73
2022-08-14T03:21:52.905Z,18.57
2022-08-14T03:24:23.350Z,18.34
2022-08-14T03:26:57.444Z,18.55
2022-08-14T03:29:27.872Z,18.52
2022-08-14T03:31:57.628Z,18.28
2022-08-14T03:34:52.648Z,17.93
2022-08-14T03:37:37.978Z,18.35
2022-08-14T03:40:05.148Z,18.42
2022-08-14T03:42:45.504Z,17.97
2022-08-14T03:45:26.134Z,17.92
2022-08-14T03:48:04.917Z,18.45
2022-08-14T03:50:39.707Z,18.13
2022-08-14T03:53:07.787Z,18.37
2022-08-14T03:55:36.998Z,18.04
2022-08-14T03:58:09.358Z,18.25
2022-08-14T04:00:44.837Z,18.10
2022-08-14T04:03:23.568Z,18.12
2022-08-14T04:05:53.607Z,17.91
2022-08-14T04:08:29.791Z,17.93
2022-08-14T04:11:01.193Z,18.46
2022-08-14T04:13:34.429Z,18.31
2022-08-14T04:16:26.098Z,18.85
2022-08-14T04:19:01.234Z,18.73
2022-08-14T04:21:30.860Z,18.55
2022-08-14T04:24:08.227Z,18.12
2022-08-14T04:26:42.162Z,18.38
2022-08-14T04:29:14.890Z,18.73
2022-08-14T04:32:58.864Z,18.90
2022-08-14T04:34:34.159Z,19.08
2022-08-14T04:37:24.603Z,19.18
2022-08-14T04:40:13.637Z,19.29
2022-08-14T04:43:01.791Z,19.39
2022-08-14T04:45:40.818Z,19.98
2022-08-14T04:48:13.703Z,20.27
2022-08-14T04:51:03.549Z,19.92
2022-08-14T04:53:35.371Z,20.04
2022-08-14T04:56:06.189Z,19.99
2022-08-14T04:58:57.648Z,20.79
2022-08-14T05:01:27.026Z,20.61
2022-08-14T05:03:56.078Z,20.36
2022-08-14T05:06:37.154Z,20.45
2022-08-14T05:09:14.165Z,20.80
2022-08-14T05:11:44.263Z,21.00
2022-08-14T05:14:16.670Z,21.61
2022-08-14T05:17:01.833Z,21.97
2022-08-14T05:19:31.938Z,22.05
2022-08-14T05:22:16.811Z,22.79
2022-08-14T05:24:50.628Z,22.79
2022-08-14T05:27:22.691Z,23.11
2022-08-14T05:29:53.802Z,23.29
2022-08-14T05:32:27.454Z,23.15
2022-08-14T05:35:00.254Z,23.04
2022-08-14T05:37:29.620Z,23.49
2022-08-14T05:39:59.439Z,24.06
2022-08-14T05:42:31.716Z,24.07
2022-08-14T05:45:00.426Z,24.60
2022-08-14T05:47:28.642Z,25.04
2022-08-14T05:49:59.751Z,25.19
2022-08-14T05:52:38.344Z,24.64
2022-08-14T05:55:16.896Z,25.42
2022-08-14T05:57:53.745Z,24.84
2022-08-14T06:00:29.278Z,25.57
2022-08-14T06:03:00.660Z,25.37
2022-08-14T06:05:32.371Z,25.47
2022-08-14T06:08:08.576Z,26.09
2022-08-14T06:10:49.990Z,25.89
2022-08-14T06:13:19.070Z,26.78
2022-08-14T06:15:48.379Z,26.65
2022-08-14T06:18:17.683Z,26.51
2022-08-14T06:20:46.879Z,26.11
2022-08-14T06:23:14.697Z,26.48
2022-08-14T06:25:44.840Z,27.59
2022-08-14T06:28:27.415Z,28.17
2022-08-14T06:30:56.328Z,27.52
2022-08-14T06:33:45.791Z,28.93
2022-08-14T06:36:13.474Z,28.16
2022-08-14T06:38:50.194Z,27.72
2022-08-14T06:41:20.594Z,29.01
2022-08-14T06:43:49.541Z,29.33
2022-08-14T06:46:23.216Z,29.02
2022-08-14T06:49:03.111Z,29.71
2022-08-14T06:51:39.069Z,29.20
2022-08-14T06:54:13.540Z,30.00
2022-08-14T06:56:44.374Z,29.77
2022-08-14T06:59:22.319Z,30.33
2022-08-14T07:02:13.393Z,30.36
2022-08-14T07:05:05.539Z,30.28
2022-08-14T07:07:39.130Z,30.84
2022-08-14T07:10:13.224Z,30.24
2022-08-14T07:12:56.365Z,29.98
2022-08-14T07:15:32.566Z,29.46
2022-08-14T07:18:03.704Z,29.65
2022-08-14T07:20:37.288Z,30.31
2022-08-14T07:23:09.196Z,29.71
2022-08-14T07:25:42.153Z,30.19
2022-08-14T07:28:20.728Z,29.79
2022-08-14T07:31:05.098Z,30.80
2022-08-14T07:33:50.320Z,31.19
2022-08-14T07:36:27.246Z,31.56
2022-08-14T07:38:59.758Z,32.04
2022-08-14T07:41:33.671Z,31.86
2022-08-14T07:44:29.438Z,31.60
2022-08-14T07:46:50.991Z,29.98
2022-08-14T07:49:20.318Z,32.00
2022-08-14T07:51:49.322Z,32.69
2022-08-14T07:54:23.650Z,32.14
2022-08-14T07:57:00.687Z,32.38
2022-08-14T07:59:41.949Z,31.76
2022-08-14T08:02:17.377Z,31.62
2022-08-14T08:04:54.040Z,32.24
2022-08-14T08:07:29.960Z,32.57
2022-08-14T08:10:02.076Z,31.69
2022-08-14T08:12:32.379Z,33.24
2022-08-14T08:15:05.636Z,33.68
2022-08-14T08:17:53.229Z,34.19
2022-08-14T08:20:29.352Z,33.83
2022-08-14T08:23:00.579Z,34.07
2022-08-14T08:25:39.524Z,33.57
2022-08-14T08:28:19.899Z,35.26
2022-08-14T08:30:56.833Z,33.91
2022-08-14T08:33:32.067Z,33.32
2022-08-14T08:36:03.648Z,33.09
2022-08-14T08:39:17.704Z,34.59
2022-08-14T08:41:20.001Z,34.88
2022-08-14T08:43:47.770Z,33.92
2022-08-14T08:46:23.393Z,33.93
2022-08-14T08:51:33.211Z,33.56
2022-08-14T08:54:18.494Z,33.09
2022-08-14T08:56:49.276Z,33.60
2022-08-14T08:59:34.245Z,33.34
2022-08-14T09:02:06.372Z,33.30
2022-08-14T09:04:52.842Z,34.30
2022-08-14T09:07:28.127Z,34.83
2022-08-14T09:10:00.122Z,34.43
2022-08-14T09:12:32.547Z,35.27
2022-08-14T09:15:12.243Z,34.94
2022-08-14T09:17:42.183Z,34.99
2022-08-14T09:20:12.509Z,34.58
2022-08-14T09:22:48.313Z,34.88
2022-08-14T09:25:19.803Z,33.91
2022-08-14T09:28:05.999Z,35.11
2022-08-14T09:30:36.184Z,35.03
2022-08-14T09:33:26.507Z,35.38
2022-08-14T09:36:11.843Z,34.45
2022-08-14T09:39:23.298Z,34.48
2022-08-14T09:42:33.325Z,35.30
2022-08-14T09:45:15.420Z,35.20
2022-08-14T09:47:56.251Z,35.38
2022-08-14T09:50:26.440Z,35.75
2022-08-14T09:53:04.016Z,35.64
2022-08-14T09:55:42.358Z,36.67
2022-08-14T09:58:19.370Z,36.26
2022-08-14T10:01:00.819Z,35.01
2022-08-14T10:03:34.510Z,33.04
2022-08-14T10:06:13.821Z,35.41
2022-08-14T10:08:44.435Z,35.69
2022-08-14T10:11:24.615Z,36.08
2022-08-14T10:14:29.413Z,35.63
2022-08-14T10:17:06.411Z,35.13
2022-08-14T10:19:37.091Z,35.93
2022-08-14T10:23:12.652Z,35.19
2022-08-14T10:24:59.870Z,35.86
2022-08-14T10:27:29.142Z,35.58
2022-08-14T10:30:01.195Z,36.25
2022-08-14T10:32:39.929Z,36.03
2022-08-14T10:35:17.457Z,35.26
2022-08-14T10:37:49.938Z,36.34
2022-08-14T10:40:38.087Z,36.65
2022-08-14T10:43:25.924Z,36.17
2022-08-14T10:46:04.041Z,36.48
2022-08-14T10:49:04.766Z,36.62
2022-08-14T10:51:39.608Z,36.92
2022-08-14T10:54:36.236Z,36.73
2022-08-14T10:57:18.865Z,35.57
2022-08-14T10:59:53.939Z,35.99
2022-08-14T11:02:46.026Z,37.24
2022-08-14T11:05:28.532Z,35.64
2022-08-14T11:07:56.847Z,36.39
2022-08-14T11:10:38.664Z,36.77
2022-08-14T11:13:16.603Z,36.20
2022-08-14T11:15:46.440Z,37.53
2022-08-14T11:18:20.783Z,36.83
2022-08-14T11:21:01.894Z,36.38
2022-08-14T11:23:37.795Z,35.25
2022-08-14T11:26:08.907Z,35.71
2022-08-14T11:28:47.949Z,35.56
2022-08-14T11:31:23.702Z,36.46
2022-08-14T11:33:55.596Z,36.56
2022-08-14T11:36:35.418Z,36.27
2022-08-14T11:39:33.439Z,36.88
2022-08-14T11:42:57.376Z,36.43
2022-08-14T11:44:53.619Z,37.08
2022-08-14T11:47:25.002Z,36.03
2022-08-14T11:49:54.233Z,36.49
2022-08-14T11:52:22.002Z,36.40
2022-08-14T11:54:58.624Z,35.93
2022-08-14T11:57:26.879Z,35.14
2022-08-14T12:00:08.472Z,36.16
2022-08-14T12:03:02.819Z,36.16
2022-08-14T12:05:36.692Z,35.12
2022-08-14T12:08:12.184Z,35.91
2022-08-14T12:10:43.432Z,35.83
2022-08-14T12:13:17.502Z,36.17
2022-08-14T12:15:51.405Z,35.98
2022-08-14T12:18:29.992Z,36.34
2022-08-14T12:20:59.987Z,36.19
2022-08-14T12:23:28.273Z,36.91
2022-08-14T12:26:31.620Z,36.68
2022-08-14T12:29:00.353Z,36.60
2022-08-14T12:31:28.489Z,37.10
2022-08-14T12:34:10.091Z,36.42
2022-08-14T12:36:38.584Z,36.01
2022-08-14T12:39:22.645Z,35.51
2022-08-14T12:41:57.263Z,35.43
2022-08-14T12:44:39.514Z,35.29
2022-08-14T12:47:21.343Z,34.94
2022-08-14T12:49:57.825Z,34.72
2022-08-14T12:52:30.660Z,35.35
2022-08-14T12:55:17.312Z,34.07
2022-08-14T12:57:49.373Z,35.17
2022-08-14T13:00:24.422Z,34.82
2022-08-14T13:02:55.565Z,34.77
2022-08-14T13:05:30.268Z,35.22
2022-08-14T13:07:59.493Z,35.28
2022-08-14T13:10:46.874Z,35.36
2022-08-14T13:13:17.950Z,35.29
2022-08-14T13:15:48.192Z,34.96
2022-08-14T13:18:26.622Z,34.67
2022-08-14T13:20:59.619Z,34.87
2022-08-14T13:23:36.207Z,34.65
2022-08-14T13:26:07.456Z,34.55
2022-08-14T13:29:02.353Z,34.70
2022-08-14T13:31:39.544Z,35.68
2022-08-14T13:34:14.364Z,35.62
2022-08-14T13:36:54.724Z,35.38
2022-08-14T13:39:27.441Z,35.30
2022-08-14T13:41:57.570Z,34.81
2022-08-14T13:44:28.831Z,34.97
2022-08-14T13:46:58.584Z,35.49
2022-08-14T13:49:29.067Z,34.70
2022-08-14T13:51:59.192Z,34.35
2022-08-14T13:54:31.323Z,34.83
2022-08-14T13:57:10.222Z,34.12
2022-08-14T13:59:46.410Z,34.41
2022-08-14T14:02:31.513Z,34.19
2022-08-14T14:05:01.658Z,34.48
2022-08-14T14:07:32.073Z,34.86
2022-08-14T14:10:06.179Z,34.69
2022-08-14T14:12:49.059Z,35.58
2022-08-14T14:15:33.867Z,34.77
2022-08-14T14:18:29.931Z,36.18
2022-08-14T14:21:02.571Z,34.19
2022-08-14T14:23:32.456Z,36.23
2022-08-14T14:26:00.502Z,35.92
2022-08-14T14:28:31.708Z,35.83
2022-08-14T14:31:06.154Z,35.78
2022-08-14T14:33:51.615Z,35.65
2022-08-14T14:36:28.523Z,35.57
2022-08-14T14:38:59.348Z,35.90
2022-08-14T14:41:43.772Z,35.33
2022-08-14T14:44:15.904Z,35.79
2022-08-14T14:46:50.346Z,36.02
2022-08-14T14:49:21.760Z,35.57
2022-08-14T14:51:51.310Z,35.24
2022-08-14T14:54:31.257Z,35.44
2022-08-14T14:57:02.373Z,34.60
2022-08-14T14:59:33.360Z,34.29
2022-08-14T15:02:08.057Z,34.16
2022-08-14T15:04:43.638Z,34.27
2022-08-14T15:07:12.533Z,34.55
2022-08-14T15:09:41.357Z,34.80
2022-08-14T15:12:34.149Z,35.05
2022-08-14T15:15:08.220Z,34.45
2022-08-14T15:17:41.765Z,33.72
2022-08-14T15:20:17.430Z,33.54
2022-08-14T15:22:58.632Z,33.69
2022-08-14T15:25:32.153Z,33.56
2022-08-14T15:28:01.777Z,34.15
2022-08-14T15:30:32.775Z,33.62
2022-08-14T15:33:00.762Z,33.61
2022-08-14T15:35:29.686Z,33.70
2022-08-14T15:38:08.904Z,32.99
2022-08-14T15:40:41.105Z,33.59
2022-08-14T15:43:13.982Z,33.17
2022-08-14T15:45:43.962Z,33.21
2022-08-14T15:48:22.246Z,33.47
2022-08-14T15:50:51.687Z,33.55
2022-08-14T15:53:22.705Z,32.95
2022-08-14T15:55:52.847Z,33.10
2022-08-14T15:58:25.472Z,32.91
2022-08-14T16:01:13.211Z,33.00
2022-08-14T16:03:42.561Z,32.82
2022-08-14T16:06:18.024Z,32.91
2022-08-14T16:08:50.314Z,33.47
2022-08-14T16:11:26.164Z,33.13
2022-08-14T16:13:57.464Z,32.90
2022-08-14T16:16:34.472Z,33.01
2022-08-14T16:19:19.115Z,32.81
2022-08-14T16:22:02.584Z,32.45
2022-08-14T16:25:00.310Z,32.68
2022-08-14T16:27:39.037Z,32.72
2022-08-14T16:30:24.862Z,32.27
2022-08-14T16:32:56.944Z,32.05
2022-08-14T16:35:42.508Z,32.40
2022-08-14T16:38:45.941Z,32.05
2022-08-14T16:41:27.379Z,31.93
2022-08-14T16:44:04.648Z,31.02
2022-08-14T16:46:43.581Z,31.07
2022-08-14T16:49:14.096Z,30.70
2022-08-14T16:51:43.861Z,30.94
2022-08-14T16:54:20.835Z,30.58
2022-08-14T16:57:22.705Z,30.43
2022-08-14T16:59:57.877Z,30.46
2022-08-14T17:02:44.186Z,30.32
2022-08-14T17:05:25.045Z,30.58
2022-08-14T17:08:41.825Z,30.61
2022-08-14T17:11:10.707Z,30.49
2022-08-14T17:13:59.591Z,30.46
2022-08-14T17:16:37.638Z,30.11
2022-08-14T17:19:11.606Z,30.19
2022-08-14T17:21:47.578Z,30.10
2022-08-14T17:24:56.588Z,29.86
2022-08-14T17:27:11.101Z,29.76
2022-08-14T17:29:56.733Z,29.48
2022-08-14T17:32:55.825Z,29.15
2022-08-14T17:35:26.761Z,29.06
2022-08-14T17:38:39.072Z,28.53
2022-08-14T17:41:32.954Z,28.98
2022-08-14T17:44:20.184Z,28.75
2022-08-14T17:46:55.291Z,28.55
2022-08-14T17:49:32.176Z,28.70
2022-08-14T17:52:17.492Z,28.38
2022-08-14T17:55:01.529Z,28.72
2022-08-14T17:57:35.241Z,28.14
2022-08-14T18:00:12.762Z,28.54
2022-08-14T18:02:51.140Z,28.10
2022-08-14T18:05:23.454Z,28.15
2022-08-14T18:08:34.351Z,27.82
2022-08-14T18:11:00.412Z,27.74
2022-08-14T18:13:49.953Z,28.28
2022-08-14T18:16:19.687Z,27.72
2022-08-14T18:18:48.604Z,28.02
2022-08-14T18:21:40.467Z,27.57
2022-08-14T18:24:05.091Z,27.04
2022-08-14T18:27:01.787Z,27.07
2022-08-14T18:29:31.717Z,27.16
2022-08-14T18:32:00.186Z,26.90
2022-08-14T18:34:36.955Z,26.97
2022-08-14T18:37:19.672Z,26.35
2022-08-14T18:40:01.644Z,26.48
2022-08-14T18:42:35.311Z,26.22
2022-08-14T18:45:12.355Z,26.51
2022-08-14T18:50:33.611Z,26.28
2022-08-14T18:53:07.511Z,26.29
2022-08-14T18:55:36.720Z,26.56
2022-08-14T18:58:30.885Z,26.64
2022-08-14T19:01:00.686Z,26.48
2022-08-14T19:03:36.492Z,26.87
2022-08-14T19:06:09.802Z,27.08
2022-08-14T19:08:40.073Z,26.94
2022-08-14T19:11:40.571Z,27.09
2022-08-14T19:14:14.130Z,26.84
2022-08-14T19:16:48.377Z,27.21
2022-08-14T19:19:23.863Z,26.20
2022-08-14T19:21:55.963Z,26.48
2022-08-14T19:24:45.253Z,25.35
2022-08-14T19:27:25.008Z,26.10
2022-08-14T19:30:20.246Z,26.26
2022-08-14T19:32:57.845Z,26.03
2022-08-14T19:35:48.556Z,25.80
2022-08-14T19:38:54.421Z,25.71
2022-08-14T19:41:34.137Z,25.68
2022-08-14T19:44:10.249Z,25.34
2022-08-14T19:47:02.616Z,25.02
2022-08-14T19:50:07.997Z,24.78
2022-08-14T19:52:35.246Z,24.77
2022-08-14T19:55:20.323Z,24.52
2022-08-14T19:57:58.388Z,24.34
2022-08-14T20:00:29.415Z,24.24
2022-08-14T20:03:10.470Z,23.68
2022-08-14T20:05:45.591Z,23.10
2022-08-14T20:10:59.870Z,23.28
2022-08-14T20:11:41.596Z,23.64
2022-08-14T20:14:12.136Z,23.57
2022-08-14T20:16:54.883Z,22.86
2022-08-14T20:19:28.621Z,23.24
2022-08-14T20:22:04.544Z,23.35
2022-08-14T20:24:47.602Z,23.25
2022-08-14T20:27:22.782Z,23.32
2022-08-14T20:30:33.726Z,23.27
2022-08-14T20:33:07.917Z,23.07
2022-08-14T20:35:39.023Z,22.59
2022-08-14T20:38:29.328Z,22.40
2022-08-14T20:41:08.606Z,22.73
2022-08-14T20:44:01.041Z,22.65
2022-08-14T20:46:38.781Z,21.98
2022-08-14T20:49:09.843Z,22.39
2022-08-14T20:51:54.482Z,22.48
2022-08-14T20:54:34.271Z,22.53
2022-08-14T20:57:14.107Z,22.75
2022-08-14T20:59:44.974Z,22.90
2022-08-14T21:02:38.717Z,22.82
2022-08-14T21:05:20.669Z,22.96
2022-08-14T21:07:50.321Z,23.07
2022-08-14T21:10:35.683Z,23.17
2022-08-14T21:13:27.221Z,23.67
2022-08-14T21:16:34.485Z,23.64
2022-08-14T21:18:58.963Z,23.46
2022-08-14T21:21:41.595Z,23.60
2022-08-14T21:24:38.756Z,23.46
2022-08-14T21:27:12.741Z,23.74
2022-08-14T21:29:54.056Z,23.85
2022-08-14T21:32:35.923Z,23.82
2022-08-14T21:35:08.509Z,23.72
2022-08-14T21:37:47.494Z,23.96
2022-08-14T21:40:29.654Z,23.32
2022-08-14T21:43:18.169Z,23.53
2022-08-14T21:45:54.006Z,23.63
2022-08-14T21:48:29.853Z,23.59
2022-08-14T21:51:53.418Z,23.67
2022-08-14T21:53:58.303Z,23.58
2022-08-14T21:56:38.600Z,23.75
2022-08-14T21:59:11.496Z,23.11
2022-08-14T22:02:00.578Z,23.05
2022-08-14T22:04:40.686Z,22.98
2022-08-14T22:07:17.206Z,22.77
2022-08-14T22:09:55.319Z,22.82
2022-08-14T22:12:45.496Z,22.66
2022-08-14T22:15:16.579Z,22.63
2022-08-14T22:17:44.754Z,22.40
2022-08-14T22:20:20.587Z,22.36
2022-08-14T22:22:48.687Z,22.28
2022-08-14T22:25:33.726Z,22.21
2022-08-14T22:28:07.054Z,21.91
2022-08-14T22:30:39.058Z,21.75
2022-08-14T22:33:10.127Z,21.78
2022-08-14T22:35:42.951Z,21.54
2022-08-14T22:38:35.741Z,21.92
2022-08-14T22:41:25.386Z,22.10
2022-08-14T22:43:50.151Z,22.18
2022-08-14T22:46:20.326Z,21.19
2022-08-14T22:48:49.769Z,21.39
2022-08-14T22:51:19.875Z,21.30
2022-08-14T22:53:52.513Z,21.17
2022-08-14T22:56:30.161Z,21.12
2022-08-14T22:59:00.638Z,21.19
2022-08-14T23:01:56.748Z,20.87
2022-08-14T23:04:35.498Z,21.36
2022-08-14T23:07:22.819Z,21.48
2022-08-14T23:09:57.640Z,21.56
2022-08-14T23:12:54.474Z,21.78
2022-08-14T23:15:29.799Z,21.84
2022-08-14T23:17:58.465Z,21.88
2022-08-14T23:20:29.252Z,21.74
2022-08-14T23:22:58.174Z,21.57
2022-08-14T23:25:56.973Z,21.55
2022-08-14T23:28:34.964Z,21.33
2022-08-14T23:31:11.575Z,21.37
2022-08-14T23:33:45.702Z,21.42
2022-08-14T23:36:31.516Z,21.36
2022-08-14T23:39:02.143Z,21.44
2022-08-14T23:41:46.519Z,21.28
2022-08-14T23:44:24.062Z,21.36
2022-08-14T23:46:56.859Z,21.20
2022-08-14T23:50:00.474Z,20.96
2022-08-14T23:52:56.221Z,20.93
2022-08-14T23:55:11.172Z,20.83
2022-08-14T23:57:43.556Z,20.30
